createdAt,value
2023-02-16T00:10:42.892Z,9.63
2023-02-16T00:13:52.904Z,9.62
2023-02-16T00:16:24.390Z,9.61
2023-02-16T00:18:59.844Z,9.66
2023-02-16T00:21:42.672Z,9.48
2023-02-16T00:24:12.770Z,9.51
2023-02-16T00:26:46.711Z,9.15
2023-02-16T00:29:40.283Z,9.85
2023-02-16T00:32:15.454Z,9.30
2023-02-16T00:34:55.565Z,9.63
2023-02-16T00:37:41.559Z,9.53
2023-02-16T00:40:09.174Z,9.19
2023-02-16T00:42:37.571Z,9.48
2023-02-16T00:45:11.026Z,9.63
2023-02-16T00:48:03.573Z,9.54
2023-02-16T00:55:15.082Z,9.70
2023-02-16T00:58:50.384Z,9.11
2023-02-16T01:01:59.663Z,9.70
2023-02-16T01:04:38.591Z,9.17
2023-02-16T01:07:35.029Z,9.29
2023-02-16T01:10:20.397Z,9.52
2023-02-16T01:12:46.970Z,9.58
2023-02-16T01:15:23.871Z,9.58
2023-02-16T01:17:50.472Z,9.55
2023-02-16T01:20:23.446Z,9.36
2023-02-16T01:22:50.958Z,9.58
2023-02-16T01:25:18.572Z,9.49
2023-02-16T01:27:46.628Z,9.69
2023-02-16T01:30:19.151Z,9.73
2023-02-16T01:32:51.488Z,9.62
2023-02-16T01:35:38.901Z,9.82
2023-02-16T01:38:05.786Z,9.60
2023-02-16T01:40:56.818Z,9.78
2023-02-16T01:43:30.317Z,9.78
2023-02-16T01:46:07.815Z,9.58
2023-02-16T01:48:34.662Z,9.72
2023-02-16T01:51:08.496Z,9.92
2023-02-16T01:53:47.502Z,9.92
2023-02-16T01:56:45.838Z,9.94
2023-02-16T01:59:26.912Z,9.89
2023-02-16T02:02:04.693Z,9.82
2023-02-16T02:05:02.496Z,9.82
2023-02-16T02:07:37.412Z,9.94
2023-02-16T02:10:14.739Z,9.79
2023-02-16T02:12:53.434Z,9.83
2023-02-16T02:15:24.540Z,9.93
2023-02-16T02:17:51.163Z,9.97
2023-02-16T02:20:49.802Z,9.98
2023-02-16T02:23:33.207Z,9.91
2023-02-16T02:26:12.359Z,9.95
2023-02-16T02:29:23.959Z,9.95
2023-02-16T02:32:08.887Z,9.92
2023-02-16T02:34:55.684Z,9.85
2023-02-16T02:37:49.756Z,9.83
2023-02-16T02:40:34.260Z,9.51
2023-02-16T02:43:22.901Z,9.65
2023-02-16T02:46:13.050Z,9.72
2023-02-16T02:48:39.980Z,9.45
2023-02-16T02:51:28.150Z,9.68
2023-02-16T02:54:32.326Z,9.62
2023-02-16T02:57:34.142Z,9.62
2023-02-16T03:00:26.453Z,9.51
2023-02-16T03:02:58.559Z,9.60
2023-02-16T03:05:29.275Z,9.46
2023-02-16T03:08:06.433Z,9.53
2023-02-16T03:10:55.861Z,9.44
2023-02-16T03:13:30.136Z,9.24
2023-02-16T03:15:58.986Z,9.30
2023-02-16T03:18:47.310Z,9.49
2023-02-16T03:21:34.074Z,9.35
2023-02-16T03:24:22.078Z,9.46
2023-02-16T03:27:09.434Z,9.46
2023-02-16T03:29:38.379Z,9.36
2023-02-16T03:32:06.213Z,9.36
2023-02-16T03:34:34.964Z,9.05
2023-02-16T03:37:02.331Z,9.25
2023-02-16T03:39:29.863Z,9.22
2023-02-16T03:41:57.599Z,9.31
2023-02-16T03:44:25.191Z,9.02
2023-02-16T03:46:52.136Z,9.06
2023-02-16T03:49:19.576Z,9.18
2023-02-16T03:51:46.634Z,9.01
2023-02-16T03:54:13.391Z,9.26
2023-02-16T03:56:40.030Z,8.89
2023-02-16T03:59:06.707Z,9.26
2023-02-16T04:01:33.363Z,8.91
2023-02-16T04:03:59.983Z,9.21
2023-02-16T04:06:26.619Z,9.10
2023-02-16T04:08:53.229Z,9.12
2023-02-16T04:11:38.457Z,9.21
2023-02-16T04:14:04.966Z,9.25
2023-02-16T04:16:31.582Z,9.06
2023-02-16T04:18:58.235Z,8.98
2023-02-16T04:21:25.046Z,9.25
2023-02-16T04:23:51.667Z,9.22
2023-02-16T04:26:18.297Z,9.06
2023-02-16T04:28:44.919Z,9.22
2023-02-16T04:31:11.615Z,9.04
2023-02-16T04:33:38.259Z,8.99
2023-02-16T04:36:05.150Z,9.00
2023-02-16T04:38:31.721Z,9.01
2023-02-16T04:40:58.325Z,9.14
2023-02-16T04:43:24.788Z,9.14
2023-02-16T04:45:51.397Z,9.16
2023-02-16T04:48:18.204Z,9.22
2023-02-16T04:50:44.834Z,9.00
2023-02-16T04:53:11.398Z,9.05
2023-02-16T04:55:37.956Z,9.08
2023-02-16T04:58:04.474Z,9.08
2023-02-16T05:00:31.049Z,9.03
2023-02-16T05:02:57.669Z,9.09
2023-02-16T05:05:24.328Z,9.05
2023-02-16T05:07:50.924Z,9.10
2023-02-16T05:10:17.532Z,9.22
2023-02-16T05:13:02.608Z,9.25
2023-02-16T05:15:29.216Z,8.99
2023-02-16T05:17:55.864Z,9.21
2023-02-16T05:20:42.685Z,9.25
2023-02-16T05:23:09.367Z,8.96
2023-02-16T05:25:35.876Z,9.26
2023-02-16T05:28:02.438Z,9.24
2023-02-16T05:30:29.041Z,9.15
2023-02-16T05:32:55.652Z,9.11
2023-02-16T05:35:22.464Z,9.23
2023-02-16T05:37:49.032Z,9.18
2023-02-16T05:40:15.630Z,9.13
2023-02-16T05:42:42.229Z,9.01
2023-02-16T05:45:09.369Z,9.03
2023-02-16T05:47:36.025Z,9.02
2023-02-16T05:50:02.676Z,9.24
2023-02-16T05:52:29.322Z,9.06
2023-02-16T05:54:55.902Z,9.07
2023-02-16T05:57:22.516Z,9.00
2023-02-16T05:59:49.013Z,9.23
2023-02-16T06:02:15.650Z,9.15
2023-02-16T06:04:42.313Z,9.05
2023-02-16T06:07:08.973Z,8.97
2023-02-16T06:09:35.688Z,9.03
2023-02-16T06:12:02.267Z,9.14
2023-02-16T06:14:28.908Z,9.20
2023-02-16T06:16:56.639Z,9.30
2023-02-16T06:19:23.263Z,9.12
2023-02-16T06:21:50.493Z,9.17
2023-02-16T06:24:17.081Z,9.38
2023-02-16T06:26:43.630Z,9.32
2023-02-16T06:29:10.696Z,9.40
2023-02-16T06:31:40.285Z,9.10
2023-02-16T06:34:07.427Z,9.25
2023-02-16T06:36:34.826Z,9.30
2023-02-16T06:39:01.439Z,9.41
2023-02-16T06:41:43.212Z,9.28
2023-02-16T06:44:13.616Z,9.31
2023-02-16T06:46:41.369Z,9.45
2023-02-16T06:49:10.934Z,9.26
2023-02-16T06:51:37.531Z,9.40
2023-02-16T06:54:04.375Z,9.43
2023-02-16T06:56:31.499Z,9.31
2023-02-16T06:58:58.084Z,9.30
2023-02-16T07:01:25.987Z,9.36
2023-02-16T07:03:54.217Z,9.41
2023-02-16T07:06:29.283Z,9.20
2023-02-16T07:08:56.130Z,9.48
2023-02-16T07:11:24.243Z,9.53
2023-02-16T07:13:51.115Z,9.46
2023-02-16T07:16:21.390Z,9.51
2023-02-16T07:18:48.332Z,9.40
2023-02-16T07:21:16.517Z,9.59
2023-02-16T07:23:45.203Z,9.27
2023-02-16T07:26:12.107Z,9.51
2023-02-16T07:28:38.988Z,9.25
2023-02-16T07:31:11.379Z,9.65
2023-02-16T07:33:38.864Z,9.53
2023-02-16T07:36:07.193Z,9.55
2023-02-16T07:38:34.158Z,9.55
2023-02-16T07:41:00.746Z,9.69
2023-02-16T07:43:30.216Z,9.39
2023-02-16T07:45:56.945Z,9.51
2023-02-16T07:48:23.579Z,9.62
2023-02-16T07:50:51.305Z,9.69
2023-02-16T07:53:18.660Z,9.63
2023-02-16T07:55:46.486Z,9.87
2023-02-16T07:58:27.244Z,9.78
2023-02-16T08:01:06.520Z,9.93
2023-02-16T08:03:33.224Z,9.77
2023-02-16T08:06:04.180Z,9.97
2023-02-16T08:08:31.546Z,9.74
2023-02-16T08:10:58.194Z,9.92
2023-02-16T08:13:26.183Z,9.65
2023-02-16T08:15:52.692Z,9.98
2023-02-16T08:18:19.696Z,9.83
2023-02-16T08:21:04.556Z,9.92
2023-02-16T08:23:31.849Z,10.05
2023-02-16T08:25:59.417Z,9.96
2023-02-16T08:28:28.957Z,9.80
2023-02-16T08:30:56.229Z,9.80
2023-02-16T08:33:23.334Z,9.75
2023-02-16T08:35:50.378Z,10.02
2023-02-16T08:38:19.883Z,10.24
2023-02-16T08:40:59.216Z,10.25
2023-02-16T08:43:28.613Z,9.79
2023-02-16T08:45:55.973Z,9.91
2023-02-16T08:48:25.898Z,10.31
2023-02-16T08:50:55.478Z,10.34
2023-02-16T08:53:23.459Z,10.40
2023-02-16T08:55:57.993Z,10.38
2023-02-16T08:58:27.079Z,10.21
2023-02-16T09:00:54.130Z,10.18
2023-02-16T09:03:20.883Z,10.23
2023-02-16T09:05:49.050Z,10.11
2023-02-16T09:08:15.992Z,10.23
2023-02-16T09:10:43.305Z,10.31
2023-02-16T09:13:16.251Z,10.30
2023-02-16T09:15:44.117Z,10.58
2023-02-16T09:18:15.245Z,10.63
2023-02-16T09:20:47.182Z,10.57
2023-02-16T09:23:13.947Z,10.60
2023-02-16T09:25:42.090Z,10.41
2023-02-16T09:28:10.966Z,10.61
2023-02-16T09:30:38.574Z,10.78
2023-02-16T09:33:05.281Z,10.49
2023-02-16T09:35:32.021Z,10.64
2023-02-16T09:38:00.895Z,10.59
2023-02-16T09:40:32.918Z,10.86
2023-02-16T09:43:16.790Z,11.02
2023-02-16T09:45:47.936Z,10.86
2023-02-16T09:48:45.529Z,11.07
2023-02-16T09:51:41.192Z,11.09
2023-02-16T09:54:30.839Z,11.22
2023-02-16T09:57:08.231Z,11.13
2023-02-16T09:59:43.816Z,11.19
2023-02-16T10:02:29.965Z,11.38
2023-02-16T10:05:56.976Z,11.33
2023-02-16T10:08:50.382Z,11.23
2023-02-16T10:12:08.092Z,11.58
2023-02-16T10:15:07.630Z,11.27
2023-02-16T10:17:45.436Z,11.34
2023-02-16T10:20:18.132Z,11.65
2023-02-16T10:23:10.587Z,11.73
2023-02-16T10:26:02.677Z,11.62
2023-02-16T10:28:41.586Z,11.65
2023-02-16T10:31:28.050Z,11.63
2023-02-16T10:34:23.031Z,11.87
2023-02-16T10:37:15.328Z,11.91
2023-02-16T10:40:00.138Z,11.92
2023-02-16T10:42:37.167Z,11.72
2023-02-16T10:45:24.800Z,11.78
2023-02-16T10:47:52.986Z,11.89
2023-02-16T10:50:25.639Z,12.01
2023-02-16T10:52:58.376Z,11.91
2023-02-16T10:55:26.265Z,11.98
2023-02-16T10:57:58.932Z,12.13
2023-02-16T11:00:52.534Z,12.13
2023-02-16T11:03:25.957Z,11.82
2023-02-16T11:05:55.490Z,12.03
2023-02-16T11:08:24.176Z,12.17
2023-02-16T11:10:53.510Z,12.10
2023-02-16T11:13:35.822Z,12.08
2023-02-16T11:16:24.514Z,12.05
2023-02-16T11:19:18.175Z,12.17
2023-02-16T11:21:50.875Z,12.02
2023-02-16T11:24:40.637Z,12.19
2023-02-16T11:27:19.627Z,12.27
2023-02-16T11:29:46.421Z,12.39
2023-02-16T11:32:16.332Z,12.37
2023-02-16T11:34:51.338Z,12.56
2023-02-16T11:37:28.796Z,12.73
2023-02-16T11:40:02.665Z,12.64
2023-02-16T11:42:40.812Z,12.84
2023-02-16T11:45:09.510Z,12.87
2023-02-16T11:47:42.828Z,12.52
2023-02-16T11:50:35.731Z,12.91
2023-02-16T11:53:13.259Z,12.93
2023-02-16T11:55:48.642Z,12.78
2023-02-16T11:58:23.025Z,12.89
2023-02-16T12:01:14.687Z,12.99
2023-02-16T12:04:12.996Z,12.76
2023-02-16T12:07:02.319Z,12.92
2023-02-16T12:10:01.906Z,12.76
2023-02-16T12:12:37.843Z,13.06
2023-02-16T12:15:39.840Z,13.07
2023-02-16T12:18:50.988Z,12.96
2023-02-16T12:21:59.366Z,12.60
2023-02-16T12:24:37.612Z,13.01
2023-02-16T12:27:18.882Z,12.91
2023-02-16T12:30:15.434Z,12.72
2023-02-16T12:32:48.195Z,13.04
2023-02-16T12:35:52.382Z,12.93
2023-02-16T12:38:46.546Z,12.77
2023-02-16T12:41:54.831Z,13.09
2023-02-16T12:44:37.520Z,12.79
2023-02-16T12:47:30.026Z,13.00
2023-02-16T12:50:02.085Z,13.23
2023-02-16T12:52:56.004Z,13.27
2023-02-16T12:55:38.544Z,13.28
2023-02-16T12:58:08.255Z,13.39
2023-02-16T13:00:45.380Z,13.29
2023-02-16T13:03:37.514Z,13.76
2023-02-16T13:06:43.945Z,13.88
2023-02-16T13:09:41.200Z,13.89
2023-02-16T13:12:30.625Z,14.26
2023-02-16T13:15:20.976Z,14.39
2023-02-16T13:17:53.063Z,14.17
2023-02-16T13:20:26.834Z,14.29
2023-02-16T13:23:13.275Z,14.14
2023-02-16T13:26:12.476Z,14.53
2023-02-16T13:29:08.345Z,14.50
2023-02-16T13:31:54.637Z,14.29
2023-02-16T13:34:48.949Z,14.40
2023-02-16T13:37:50.626Z,14.19
2023-02-16T13:40:42.105Z,13.69
2023-02-16T13:43:33.527Z,14.05
2023-02-16T13:46:18.315Z,13.56
2023-02-16T13:48:52.078Z,14.04
2023-02-16T13:51:23.350Z,14.10
2023-02-16T13:54:27.276Z,13.95
2023-02-16T13:56:54.462Z,13.89
2023-02-16T14:00:08.052Z,14.18
2023-02-16T14:02:54.563Z,14.33
2023-02-16T14:05:28.769Z,13.99
2023-02-16T14:08:09.166Z,14.04
2023-02-16T14:10:54.015Z,14.29
2023-02-16T14:13:46.151Z,14.22
2023-02-16T14:16:33.733Z,14.14
2023-02-16T14:19:22.649Z,13.96
2023-02-16T14:22:20.072Z,13.88
2023-02-16T14:25:03.733Z,13.59
2023-02-16T14:28:20.227Z,14.19
2023-02-16T14:30:53.330Z,14.02
2023-02-16T14:33:33.304Z,13.97
2023-02-16T14:35:59.875Z,14.01
2023-02-16T14:38:40.445Z,14.00
2023-02-16T14:41:36.118Z,14.12
2023-02-16T14:44:07.381Z,14.10
2023-02-16T14:46:34.059Z,14.10
2023-02-16T14:49:21.867Z,14.11
2023-02-16T14:51:54.535Z,14.13
2023-02-16T14:54:54.801Z,14.16
2023-02-16T14:57:47.870Z,14.10
2023-02-16T15:00:30.989Z,14.23
2023-02-16T15:03:03.478Z,14.07
2023-02-16T15:05:34.290Z,14.09
2023-02-16T15:08:18.595Z,14.18
2023-02-16T15:10:48.856Z,14.27
2023-02-16T15:13:21.506Z,14.15
2023-02-16T15:15:53.234Z,14.40
2023-02-16T15:18:23.620Z,14.16
2023-02-16T15:20:56.037Z,14.36
2023-02-16T15:23:25.456Z,14.49
2023-02-16T15:26:20.421Z,14.71
2023-02-16T15:28:56.326Z,14.36
2023-02-16T15:31:34.229Z,14.39
2023-02-16T15:34:08.290Z,14.80
2023-02-16T15:36:38.441Z,14.39
2023-02-16T15:39:28.196Z,14.79
2023-02-16T15:42:21.744Z,14.80
2023-02-16T15:44:48.710Z,14.79
2023-02-16T15:47:24.319Z,14.44
2023-02-16T15:49:55.766Z,14.72
2023-02-16T15:52:37.854Z,14.71
2023-02-16T15:55:09.247Z,14.41
2023-02-16T15:57:40.109Z,14.69
2023-02-16T16:00:20.728Z,14.63
2023-02-16T16:02:53.704Z,14.67
2023-02-16T16:05:45.316Z,14.26
2023-02-16T16:08:14.601Z,14.49
2023-02-16T16:10:47.604Z,14.51
2023-02-16T16:13:30.080Z,14.63
2023-02-16T16:16:02.297Z,14.63
2023-02-16T16:18:43.631Z,14.26
2023-02-16T16:21:13.483Z,14.62
2023-02-16T16:23:40.808Z,14.60
2023-02-16T16:26:20.309Z,14.32
2023-02-16T16:28:47.231Z,14.27
2023-02-16T16:31:36.758Z,14.50
2023-02-16T16:34:31.723Z,14.26
2023-02-16T16:36:59.296Z,14.18
2023-02-16T16:39:31.500Z,14.07
2023-02-16T16:42:01.272Z,14.38
2023-02-16T16:44:35.604Z,14.20
2023-02-16T16:47:25.058Z,14.35
2023-02-16T16:49:54.514Z,14.35
2023-02-16T16:52:51.559Z,14.06
2023-02-16T16:55:25.138Z,14.28
2023-02-16T16:58:08.221Z,13.78
2023-02-16T17:00:38.425Z,13.73
2023-02-16T17:03:08.287Z,14.12
2023-02-16T17:05:38.742Z,13.95
2023-02-16T17:08:08.775Z,13.62
2023-02-16T17:10:42.311Z,13.72
2023-02-16T17:13:15.210Z,13.98
2023-02-16T17:15:58.744Z,13.72
2023-02-16T17:18:25.805Z,13.79
2023-02-16T17:20:52.699Z,13.90
2023-02-16T17:23:26.124Z,13.63
2023-02-16T17:25:55.326Z,13.71
2023-02-16T17:28:22.391Z,13.35
2023-02-16T17:30:48.966Z,13.60
2023-02-16T17:33:16.356Z,13.66
2023-02-16T17:35:43.856Z,13.59
2023-02-16T17:38:18.792Z,13.78
2023-02-16T17:40:53.769Z,13.44
2023-02-16T17:43:22.105Z,13.72
2023-02-16T17:46:07.620Z,13.27
2023-02-16T17:48:37.234Z,13.19
2023-02-16T17:51:04.223Z,13.21
2023-02-16T17:53:31.554Z,13.31
2023-02-16T17:55:58.548Z,13.23
2023-02-16T17:58:25.685Z,13.33
2023-02-16T18:00:55.629Z,13.34
2023-02-16T18:03:23.308Z,13.47
2023-02-16T18:05:50.304Z,13.32
2023-02-16T18:08:17.033Z,13.58
2023-02-16T18:10:50.864Z,13.52
2023-02-16T18:13:19.498Z,13.31
2023-02-16T18:15:51.964Z,13.56
2023-02-16T18:18:38.142Z,13.14
2023-02-16T18:21:10.394Z,12.95
2023-02-16T18:23:39.723Z,13.35
2023-02-16T18:26:07.479Z,13.08
2023-02-16T18:28:34.707Z,13.19
2023-02-16T18:31:05.156Z,13.40
2023-02-16T18:33:44.441Z,12.92
2023-02-16T18:36:11.170Z,12.83
2023-02-16T18:38:42.539Z,12.91
2023-02-16T18:41:10.350Z,13.01
2023-02-16T18:43:37.389Z,12.87
2023-02-16T18:46:09.126Z,13.04
2023-02-16T18:48:36.003Z,12.78
2023-02-16T18:51:24.190Z,12.92
2023-02-16T18:53:51.099Z,12.34
2023-02-16T18:56:25.865Z,12.39
2023-02-16T18:58:58.915Z,12.43
2023-02-16T19:01:33.396Z,12.40
2023-02-16T19:04:17.300Z,12.26
2023-02-16T19:06:50.334Z,12.27
2023-02-16T19:09:17.976Z,12.26
2023-02-16T19:11:49.974Z,12.33
2023-02-16T19:14:18.710Z,12.08
2023-02-16T19:16:48.160Z,12.18
2023-02-16T19:19:19.326Z,12.14
2023-02-16T19:21:46.061Z,12.11
2023-02-16T19:24:13.297Z,12.07
2023-02-16T19:26:40.572Z,12.35
2023-02-16T19:29:07.329Z,12.27
2023-02-16T19:31:38.031Z,12.34
2023-02-16T19:34:15.591Z,12.08
2023-02-16T19:36:44.145Z,11.92
2023-02-16T19:39:12.203Z,11.96
2023-02-16T19:41:45.410Z,11.92
2023-02-16T19:44:14.297Z,11.67
2023-02-16T19:46:44.744Z,11.92
2023-02-16T19:49:15.202Z,11.82
2023-02-16T19:51:42.909Z,11.82
2023-02-16T19:54:14.066Z,11.42
2023-02-16T19:56:41.614Z,11.83
2023-02-16T19:59:16.953Z,12.03
2023-02-16T20:01:44.022Z,11.54
2023-02-16T20:04:13.741Z,11.91
2023-02-16T20:06:42.067Z,11.55
2023-02-16T20:09:12.652Z,11.70
2023-02-16T20:11:44.385Z,11.70
2023-02-16T20:17:05.363Z,11.46
2023-02-16T20:19:34.320Z,11.61
2023-02-16T20:22:09.488Z,11.70
2023-02-16T20:24:39.022Z,11.62
2023-02-16T20:27:05.847Z,11.55
2023-02-16T20:29:44.884Z,11.52
2023-02-16T20:32:16.335Z,11.55
2023-02-16T20:34:43.208Z,11.59
2023-02-16T20:37:13.804Z,11.57
2023-02-16T20:39:40.588Z,11.50
2023-02-16T20:42:08.493Z,11.50
2023-02-16T20:44:34.993Z,11.41
2023-02-16T20:47:01.835Z,11.56
2023-02-16T20:49:30.406Z,11.27
2023-02-16T20:52:00.254Z,11.35
2023-02-16T20:54:26.963Z,11.08
2023-02-16T20:56:54.171Z,11.22
2023-02-16T20:59:21.167Z,11.36
2023-02-16T21:01:54.961Z,11.03
2023-02-16T21:04:24.957Z,11.12
2023-02-16T21:06:51.709Z,11.43
2023-02-16T21:09:18.403Z,11.23
2023-02-16T21:11:48.822Z,11.14
2023-02-16T21:14:15.574Z,11.02
2023-02-16T21:16:42.956Z,11.12
2023-02-16T21:19:22.519Z,11.30
2023-02-16T21:21:52.956Z,11.12
2023-02-16T21:24:19.890Z,11.15
2023-02-16T21:26:46.514Z,11.33
2023-02-16T21:29:16.852Z,10.96
2023-02-16T21:31:44.199Z,11.09
2023-02-16T21:34:11.131Z,11.50
2023-02-16T21:36:38.931Z,11.36
2023-02-16T21:39:08.707Z,11.34
2023-02-16T21:42:06.873Z,11.18
2023-02-16T21:44:33.561Z,11.39
2023-02-16T21:47:18.567Z,11.28
2023-02-16T21:49:52.399Z,11.25
2023-02-16T21:52:26.441Z,11.52
2023-02-16T21:55:12.142Z,11.49
2023-02-16T21:57:40.748Z,11.16
2023-02-16T22:00:21.969Z,11.37
2023-02-16T22:17:24.943Z,11.59
2023-02-16T22:19:51.626Z,11.65
2023-02-16T22:22:18.330Z,11.49
2023-02-16T22:24:49.714Z,11.57
2023-02-16T22:27:16.460Z,11.76
2023-02-16T22:29:46.085Z,11.68
2023-02-16T22:32:17.941Z,11.80
2023-02-16T22:34:44.835Z,11.79
2023-02-16T22:37:11.621Z,11.79
2023-02-16T22:39:40.699Z,11.55
2023-02-16T22:42:26.178Z,11.78
2023-02-16T22:44:55.375Z,11.73
2023-02-16T22:47:22.238Z,11.87
2023-02-16T22:49:49.823Z,11.90
2023-02-16T22:52:20.103Z,11.89
2023-02-16T22:54:51.702Z,11.72
2023-02-16T22:57:19.158Z,11.84
2023-02-16T22:59:54.152Z,11.90
2023-02-16T23:02:25.853Z,11.52
2023-02-16T23:04:56.414Z,12.01
2023-02-16T23:07:23.272Z,12.04
2023-02-16T23:09:49.832Z,12.04
2023-02-16T23:12:16.738Z,12.24
2023-02-16T23:53:01.752Z,12.47
2023-02-16T23:55:28.526Z,12.19
2023-02-16T23:57:55.724Z,12.43
